sensor_id;sensor_type;location;lat;lon;timestamp;P1;durP1;ratioP1;P2;durP2;ratioP2
65658;SDS011;60181;53.258;6.932;2023-12-07T00:01:58;6.10;;;3.90;;
65658;SDS011;60181;53.258;6.932;2023-12-07T00:06:10;6.10;;;3.90;;
65658;SDS011;60181;53.258;6.932;2023-12-07T00:10:22;5.50;;;3.80;;
65658;SDS011;60181;53.258;6.932;2023-12-07T00:14:34;5.50;;;3.80;;
65658;SDS011;60181;53.258;6.932;2023-12-07T00:18:47;5.50;;;3.80;;
65658;SDS011;60181;53.258;6.932;2023-12-07T00:22:58;5.70;;;3.80;;
65658;SDS011;60181;53.258;6.932;2023-12-07T00:27:10;5.70;;;3.80;;
65658;SDS011;60181;53.258;6.932;2023-12-07T00:31:22;6.40;;;4.10;;
65658;SDS011;60181;53.258;6.932;2023-12-07T00:35:34;6.40;;;4.10;;
65658;SDS011;60181;53.258;6.932;2023-12-07T00:39:46;6.80;;;3.90;;
65658;SDS011;60181;53.258;6.932;2023-12-07T00:43:58;6.80;;;3.90;;
65658;SDS011;60181;53.258;6.932;2023-12-07T00:48:11;6.80;;;3.90;;
65658;SDS011;60181;53.258;6.932;2023-12-07T00:52:22;6.20;;;4.00;;
65658;SDS011;60181;53.258;6.932;2023-12-07T00:56:34;6.20;;;4.00;;
65658;SDS011;60181;53.258;6.932;2023-12-07T01:00:46;6.30;;;4.10;;
65658;SDS011;60181;53.258;6.932;2023-12-07T01:04:58;6.30;;;4.10;;
65658;SDS011;60181;53.258;6.932;2023-12-07T01:09:10;6.30;;;4.10;;
65658;SDS011;60181;53.258;6.932;2023-12-07T01:13:22;6.30;;;4.00;;
65658;SDS011;60181;53.258;6.932;2023-12-07T01:17:34;6.30;;;4.00;;
65658;SDS011;60181;53.258;6.932;2023-12-07T01:21:46;7.00;;;3.80;;
65658;SDS011;60181;53.258;6.932;2023-12-07T01:25:58;7.00;;;3.80;;
65658;SDS011;60181;53.258;6.932;2023-12-07T01:30:10;7.10;;;4.30;;
65658;SDS011;60181;53.258;6.932;2023-12-07T01:34:22;7.10;;;4.30;;
65658;SDS011;60181;53.258;6.932;2023-12-07T01:38:34;7.10;;;4.30;;
65658;SDS011;60181;53.258;6.932;2023-12-07T01:42:50;5.80;;;3.90;;
65658;SDS011;60181;53.258;6.932;2023-12-07T01:46:58;5.80;;;3.90;;
65658;SDS011;60181;53.258;6.932;2023-12-07T01:51:10;7.90;;;3.90;;
65658;SDS011;60181;53.258;6.932;2023-12-07T01:55:22;7.90;;;3.90;;
65658;SDS011;60181;53.258;6.932;2023-12-07T01:59:34;6.80;;;4.30;;
65658;SDS011;60181;53.258;6.932;2023-12-07T02:03:46;6.80;;;4.30;;
65658;SDS011;60181;53.258;6.932;2023-12-07T02:07:58;6.80;;;4.30;;
65658;SDS011;60181;53.258;6.932;2023-12-07T02:12:10;8.80;;;3.90;;
65658;SDS011;60181;53.258;6.932;2023-12-07T02:16:33;8.80;;;3.90;;
65658;SDS011;60181;53.258;6.932;2023-12-07T02:20:39;7.70;;;4.00;;
65658;SDS011;60181;53.258;6.932;2023-12-07T02:25:05;7.70;;;4.00;;
65658;SDS011;60181;53.258;6.932;2023-12-07T02:28:58;7.70;;;4.00;;
65658;SDS011;60181;53.258;6.932;2023-12-07T02:33:10;8.50;;;4.40;;
65658;SDS011;60181;53.258;6.932;2023-12-07T02:37:22;8.50;;;4.40;;
65658;SDS011;60181;53.258;6.932;2023-12-07T02:41:34;12.90;;;4.20;;
65658;SDS011;60181;53.258;6.932;2023-12-07T02:45:47;12.90;;;4.20;;
65658;SDS011;60181;53.258;6.932;2023-12-07T02:49:58;9.70;;;4.00;;
65658;SDS011;60181;53.258;6.932;2023-12-07T02:54:10;9.70;;;4.00;;
65658;SDS011;60181;53.258;6.932;2023-12-07T02:58:22;9.70;;;4.00;;
65658;SDS011;60181;53.258;6.932;2023-12-07T03:02:35;8.30;;;3.70;;
65658;SDS011;60181;53.258;6.932;2023-12-07T03:06:46;8.30;;;3.70;;
65658;SDS011;60181;53.258;6.932;2023-12-07T03:10:58;6.60;;;4.00;;
65658;SDS011;60181;53.258;6.932;2023-12-07T03:15:10;6.60;;;4.00;;
65658;SDS011;60181;53.258;6.932;2023-12-07T03:19:22;6.60;;;4.00;;
65658;SDS011;60181;53.258;6.932;2023-12-07T03:23:34;6.60;;;3.40;;
65658;SDS011;60181;53.258;6.932;2023-12-07T03:27:46;6.60;;;3.40;;
65658;SDS011;60181;53.258;6.932;2023-12-07T03:31:58;8.20;;;3.60;;
65658;SDS011;60181;53.258;6.932;2023-12-07T03:36:10;8.20;;;3.60;;
65658;SDS011;60181;53.258;6.932;2023-12-07T03:40:22;6.60;;;3.70;;
65658;SDS011;60181;53.258;6.932;2023-12-07T03:44:34;6.60;;;3.70;;
65658;SDS011;60181;53.258;6.932;2023-12-07T03:48:46;6.60;;;3.70;;
65658;SDS011;60181;53.258;6.932;2023-12-07T03:52:58;5.70;;;3.60;;
65658;SDS011;60181;53.258;6.932;2023-12-07T03:57:10;5.70;;;3.60;;
65658;SDS011;60181;53.258;6.932;2023-12-07T04:01:26;6.90;;;3.60;;
65658;SDS011;60181;53.258;6.932;2023-12-07T04:05:34;6.90;;;3.60;;
65658;SDS011;60181;53.258;6.932;2023-12-07T04:09:46;5.70;;;3.50;;
65658;SDS011;60181;53.258;6.932;2023-12-07T04:13:58;5.70;;;3.50;;
65658;SDS011;60181;53.258;6.932;2023-12-07T04:18:10;5.70;;;3.50;;
65658;SDS011;60181;53.258;6.932;2023-12-07T04:22:22;7.40;;;3.60;;
65658;SDS011;60181;53.258;6.932;2023-12-07T04:26:34;7.40;;;3.60;;
65658;SDS011;60181;53.258;6.932;2023-12-07T04:30:46;6.30;;;3.80;;
65658;SDS011;60181;53.258;6.932;2023-12-07T04:34:58;6.30;;;3.80;;
65658;SDS011;60181;53.258;6.932;2023-12-07T04:39:10;6.30;;;3.80;;
65658;SDS011;60181;53.258;6.932;2023-12-07T04:43:22;5.20;;;3.50;;
65658;SDS011;60181;53.258;6.932;2023-12-07T04:47:34;5.20;;;3.50;;
65658;SDS011;60181;53.258;6.932;2023-12-07T04:51:46;5.80;;;3.30;;
65658;SDS011;60181;53.258;6.932;2023-12-07T04:55:58;5.80;;;3.30;;
65658;SDS011;60181;53.258;6.932;2023-12-07T05:00:10;7.50;;;3.20;;
65658;SDS011;60181;53.258;6.932;2023-12-07T05:04:22;7.50;;;3.20;;
65658;SDS011;60181;53.258;6.932;2023-12-07T05:08:34;7.50;;;3.20;;
65658;SDS011;60181;53.258;6.932;2023-12-07T05:12:46;6.00;;;3.20;;
65658;SDS011;60181;53.258;6.932;2023-12-07T05:16:58;6.00;;;3.20;;
65658;SDS011;60181;53.258;6.932;2023-12-07T05:21:10;6.20;;;3.20;;
65658;SDS011;60181;53.258;6.932;2023-12-07T05:25:22;6.20;;;3.20;;
65658;SDS011;60181;53.258;6.932;2023-12-07T05:29:34;8.10;;;3.40;;
65658;SDS011;60181;53.258;6.932;2023-12-07T05:33:46;8.10;;;3.40;;
65658;SDS011;60181;53.258;6.932;2023-12-07T05:37:58;8.10;;;3.40;;
65658;SDS011;60181;53.258;6.932;2023-12-07T05:42:10;7.70;;;3.20;;
65658;SDS011;60181;53.258;6.932;2023-12-07T05:46:22;7.70;;;3.20;;
65658;SDS011;60181;53.258;6.932;2023-12-07T05:50:34;6.30;;;3.20;;
65658;SDS011;60181;53.258;6.932;2023-12-07T05:54:46;6.30;;;3.20;;
65658;SDS011;60181;53.258;6.932;2023-12-07T05:58:58;6.30;;;3.20;;
65658;SDS011;60181;53.258;6.932;2023-12-07T06:03:10;5.70;;;3.00;;
65658;SDS011;60181;53.258;6.932;2023-12-07T06:07:22;5.70;;;3.00;;
65658;SDS011;60181;53.258;6.932;2023-12-07T06:11:34;7.10;;;3.30;;
65658;SDS011;60181;53.258;6.932;2023-12-07T06:15:46;7.10;;;3.30;;
65658;SDS011;60181;53.258;6.932;2023-12-07T06:19:58;18.20;;;3.70;;
65658;SDS011;60181;53.258;6.932;2023-12-07T06:24:10;18.20;;;3.70;;
65658;SDS011;60181;53.258;6.932;2023-12-07T06:28:22;18.20;;;3.70;;
65658;SDS011;60181;53.258;6.932;2023-12-07T06:32:34;13.60;;;3.70;;
65658;SDS011;60181;53.258;6.932;2023-12-07T06:36:46;13.60;;;3.70;;
65658;SDS011;60181;53.258;6.932;2023-12-07T06:40:58;11.70;;;4.00;;
65658;SDS011;60181;53.258;6.932;2023-12-07T06:45:10;11.70;;;4.00;;
65658;SDS011;60181;53.258;6.932;2023-12-07T06:49:22;11.70;;;4.00;;
65658;SDS011;60181;53.258;6.932;2023-12-07T06:53:34;11.10;;;3.40;;
65658;SDS011;60181;53.258;6.932;2023-12-07T06:57:46;11.10;;;3.40;;
65658;SDS011;60181;53.258;6.932;2023-12-07T07:01:58;9.40;;;3.40;;
65658;SDS011;60181;53.258;6.932;2023-12-07T07:06:10;9.40;;;3.40;;
65658;SDS011;60181;53.258;6.932;2023-12-07T07:10:22;7.20;;;3.30;;
65658;SDS011;60181;53.258;6.932;2023-12-07T07:14:34;7.20;;;3.30;;
65658;SDS011;60181;53.258;6.932;2023-12-07T07:18:46;7.20;;;3.30;;
65658;SDS011;60181;53.258;6.932;2023-12-07T07:22:58;7.70;;;3.00;;
65658;SDS011;60181;53.258;6.932;2023-12-07T07:27:10;7.70;;;3.00;;
65658;SDS011;60181;53.258;6.932;2023-12-07T07:31:22;12.00;;;3.00;;
65658;SDS011;60181;53.258;6.932;2023-12-07T07:35:34;12.00;;;3.00;;
65658;SDS011;60181;53.258;6.932;2023-12-07T07:39:46;6.10;;;2.50;;
65658;SDS011;60181;53.258;6.932;2023-12-07T07:43:58;6.10;;;2.50;;
65658;SDS011;60181;53.258;6.932;2023-12-07T07:48:10;6.10;;;2.50;;
65658;SDS011;60181;53.258;6.932;2023-12-07T07:52:22;4.70;;;2.30;;
65658;SDS011;60181;53.258;6.932;2023-12-07T07:56:34;4.70;;;2.30;;
65658;SDS011;60181;53.258;6.932;2023-12-07T08:00:46;5.30;;;2.80;;
65658;SDS011;60181;53.258;6.932;2023-12-07T08:04:58;5.30;;;2.80;;
65658;SDS011;60181;53.258;6.932;2023-12-07T08:09:10;5.30;;;2.80;;
65658;SDS011;60181;53.258;6.932;2023-12-07T08:13:22;4.10;;;2.70;;
65658;SDS011;60181;53.258;6.932;2023-12-07T08:17:34;4.10;;;2.70;;
65658;SDS011;60181;53.258;6.932;2023-12-07T08:21:46;4.80;;;2.60;;
65658;SDS011;60181;53.258;6.932;2023-12-07T08:25:58;4.80;;;2.60;;
65658;SDS011;60181;53.258;6.932;2023-12-07T08:30:10;5.60;;;2.60;;
65658;SDS011;60181;53.258;6.932;2023-12-07T08:34:22;5.60;;;2.60;;
65658;SDS011;60181;53.258;6.932;2023-12-07T08:38:34;5.60;;;2.60;;
65658;SDS011;60181;53.258;6.932;2023-12-07T08:42:46;4.30;;;2.50;;
65658;SDS011;60181;53.258;6.932;2023-12-07T08:46:58;4.30;;;2.50;;
65658;SDS011;60181;53.258;6.932;2023-12-07T08:51:10;6.50;;;2.60;;
65658;SDS011;60181;53.258;6.932;2023-12-07T08:55:22;6.50;;;2.60;;
65658;SDS011;60181;53.258;6.932;2023-12-07T08:59:34;4.00;;;2.50;;
65658;SDS011;60181;53.258;6.932;2023-12-07T09:03:46;4.00;;;2.50;;
65658;SDS011;60181;53.258;6.932;2023-12-07T09:07:58;4.00;;;2.50;;
65658;SDS011;60181;53.258;6.932;2023-12-07T09:12:10;4.80;;;2.70;;
65658;SDS011;60181;53.258;6.932;2023-12-07T09:16:22;4.80;;;2.70;;
65658;SDS011;60181;53.258;6.932;2023-12-07T09:20:34;10.10;;;3.40;;
65658;SDS011;60181;53.258;6.932;2023-12-07T09:24:46;10.10;;;3.40;;
65658;SDS011;60181;53.258;6.932;2023-12-07T09:28:58;10.10;;;3.40;;
65658;SDS011;60181;53.258;6.932;2023-12-07T09:33:10;6.70;;;3.40;;
65658;SDS011;60181;53.258;6.932;2023-12-07T09:37:22;6.70;;;3.40;;
65658;SDS011;60181;53.258;6.932;2023-12-07T09:41:34;10.40;;;3.40;;
65658;SDS011;60181;53.258;6.932;2023-12-07T09:45:46;10.40;;;3.40;;
65658;SDS011;60181;53.258;6.932;2023-12-07T09:49:58;10.30;;;3.50;;
65658;SDS011;60181;53.258;6.932;2023-12-07T09:54:10;10.30;;;3.50;;
65658;SDS011;60181;53.258;6.932;2023-12-07T09:58:22;10.30;;;3.50;;
65658;SDS011;60181;53.258;6.932;2023-12-07T10:02:36;17.60;;;4.70;;
65658;SDS011;60181;53.258;6.932;2023-12-07T10:06:46;17.60;;;4.70;;
65658;SDS011;60181;53.258;6.932;2023-12-07T10:11:04;11.10;;;4.20;;
65658;SDS011;60181;53.258;6.932;2023-12-07T10:15:13;11.10;;;4.20;;
65658;SDS011;60181;53.258;6.932;2023-12-07T10:19:22;11.10;;;4.20;;
65658;SDS011;60181;53.258;6.932;2023-12-07T10:23:34;13.10;;;4.70;;
65658;SDS011;60181;53.258;6.932;2023-12-07T10:27:46;13.10;;;4.70;;
65658;SDS011;60181;53.258;6.932;2023-12-07T10:32:01;15.40;;;5.30;;
65658;SDS011;60181;53.258;6.932;2023-12-07T10:36:10;15.40;;;5.30;;
65658;SDS011;60181;53.258;6.932;2023-12-07T10:40:22;15.10;;;5.40;;
65658;SDS011;60181;53.258;6.932;2023-12-07T10:44:34;15.10;;;5.40;;
65658;SDS011;60181;53.258;6.932;2023-12-07T10:48:46;15.10;;;5.40;;
65658;SDS011;60181;53.258;6.932;2023-12-07T10:52:59;14.20;;;5.00;;
65658;SDS011;60181;53.258;6.932;2023-12-07T10:57:10;14.20;;;5.00;;
65658;SDS011;60181;53.258;6.932;2023-12-07T11:01:22;12.60;;;4.80;;
65658;SDS011;60181;53.258;6.932;2023-12-07T11:05:34;12.60;;;4.80;;
65658;SDS011;60181;53.258;6.932;2023-12-07T11:09:47;10.10;;;4.70;;
65658;SDS011;60181;53.258;6.932;2023-12-07T11:13:58;10.10;;;4.70;;
65658;SDS011;60181;53.258;6.932;2023-12-07T11:18:10;10.10;;;4.70;;
65658;SDS011;60181;53.258;6.932;2023-12-07T11:22:22;7.80;;;4.20;;
65658;SDS011;60181;53.258;6.932;2023-12-07T11:26:34;7.80;;;4.20;;
65658;SDS011;60181;53.258;6.932;2023-12-07T11:30:46;8.50;;;4.30;;
65658;SDS011;60181;53.258;6.932;2023-12-07T11:35:04;8.50;;;4.30;;
65658;SDS011;60181;53.258;6.932;2023-12-07T11:43:37;11.20;;;4.50;;
65658;SDS011;60181;53.258;6.932;2023-12-07T11:47:33;11.20;;;4.50;;
65658;SDS011;60181;53.258;6.932;2023-12-07T11:51:45;9.80;;;4.10;;
65658;SDS011;60181;53.258;6.932;2023-12-07T11:55:58;9.80;;;4.10;;
65658;SDS011;60181;53.258;6.932;2023-12-07T12:00:10;9.50;;;4.30;;
65658;SDS011;60181;53.258;6.932;2023-12-07T12:04:21;9.50;;;4.30;;
65658;SDS011;60181;53.258;6.932;2023-12-07T12:08:33;9.50;;;4.30;;
65658;SDS011;60181;53.258;6.932;2023-12-07T12:12:45;10.30;;;4.50;;
65658;SDS011;60181;53.258;6.932;2023-12-07T12:16:57;10.30;;;4.50;;
65658;SDS011;60181;53.258;6.932;2023-12-07T12:21:09;10.10;;;4.30;;
65658;SDS011;60181;53.258;6.932;2023-12-07T12:25:25;10.10;;;4.30;;
65658;SDS011;60181;53.258;6.932;2023-12-07T12:29:33;7.60;;;3.90;;
65658;SDS011;60181;53.258;6.932;2023-12-07T12:33:47;7.60;;;3.90;;
65658;SDS011;60181;53.258;6.932;2023-12-07T12:37:57;7.60;;;3.90;;
65658;SDS011;60181;53.258;6.932;2023-12-07T12:42:09;7.90;;;3.90;;
65658;SDS011;60181;53.258;6.932;2023-12-07T12:46:21;7.90;;;3.90;;
65658;SDS011;60181;53.258;6.932;2023-12-07T12:50:37;8.90;;;4.40;;
65658;SDS011;60181;53.258;6.932;2023-12-07T12:54:46;8.90;;;4.40;;
65658;SDS011;60181;53.258;6.932;2023-12-07T12:58:57;8.90;;;4.40;;
65658;SDS011;60181;53.258;6.932;2023-12-07T13:03:09;9.00;;;4.20;;
65658;SDS011;60181;53.258;6.932;2023-12-07T13:07:21;9.00;;;4.20;;
65658;SDS011;60181;53.258;6.932;2023-12-07T13:11:33;6.30;;;3.90;;
65658;SDS011;60181;53.258;6.932;2023-12-07T13:15:45;6.30;;;3.90;;
65658;SDS011;60181;53.258;6.932;2023-12-07T13:19:57;7.90;;;3.90;;
65658;SDS011;60181;53.258;6.932;2023-12-07T13:24:09;7.90;;;3.90;;
65658;SDS011;60181;53.258;6.932;2023-12-07T13:28:21;7.90;;;3.90;;
65658;SDS011;60181;53.258;6.932;2023-12-07T13:32:33;9.90;;;4.00;;
65658;SDS011;60181;53.258;6.932;2023-12-07T13:36:45;9.90;;;4.00;;
65658;SDS011;60181;53.258;6.932;2023-12-07T13:40:57;7.50;;;3.40;;
65658;SDS011;60181;53.258;6.932;2023-12-07T13:45:09;7.50;;;3.40;;
65658;SDS011;60181;53.258;6.932;2023-12-07T13:49:21;7.50;;;3.40;;
65658;SDS011;60181;53.258;6.932;2023-12-07T13:53:33;7.80;;;3.80;;
65658;SDS011;60181;53.258;6.932;2023-12-07T13:57:45;7.80;;;3.80;;
65658;SDS011;60181;53.258;6.932;2023-12-07T14:01:57;6.40;;;3.50;;
65658;SDS011;60181;53.258;6.932;2023-12-07T14:06:10;6.40;;;3.50;;
65658;SDS011;60181;53.258;6.932;2023-12-07T14:10:21;8.50;;;3.80;;
65658;SDS011;60181;53.258;6.932;2023-12-07T14:14:33;8.50;;;3.80;;
65658;SDS011;60181;53.258;6.932;2023-12-07T14:18:45;8.50;;;3.80;;
65658;SDS011;60181;53.258;6.932;2023-12-07T14:22:57;8.30;;;4.00;;
65658;SDS011;60181;53.258;6.932;2023-12-07T14:27:09;8.30;;;4.00;;
65658;SDS011;60181;53.258;6.932;2023-12-07T14:31:21;7.90;;;3.90;;
65658;SDS011;60181;53.258;6.932;2023-12-07T14:35:33;7.90;;;3.90;;
65658;SDS011;60181;53.258;6.932;2023-12-07T14:39:45;7.20;;;3.40;;
65658;SDS011;60181;53.258;6.932;2023-12-07T14:43:57;7.20;;;3.40;;
65658;SDS011;60181;53.258;6.932;2023-12-07T14:48:09;7.20;;;3.40;;
65658;SDS011;60181;53.258;6.932;2023-12-07T14:52:21;7.10;;;3.50;;
65658;SDS011;60181;53.258;6.932;2023-12-07T14:56:33;7.10;;;3.50;;
65658;SDS011;60181;53.258;6.932;2023-12-07T15:00:45;7.60;;;3.70;;
65658;SDS011;60181;53.258;6.932;2023-12-07T15:04:57;7.60;;;3.70;;
65658;SDS011;60181;53.258;6.932;2023-12-07T15:09:09;7.60;;;3.70;;
65658;SDS011;60181;53.258;6.932;2023-12-07T15:13:21;7.90;;;3.90;;
65658;SDS011;60181;53.258;6.932;2023-12-07T15:17:33;7.90;;;3.90;;
65658;SDS011;60181;53.258;6.932;2023-12-07T15:21:45;7.30;;;4.00;;
65658;SDS011;60181;53.258;6.932;2023-12-07T15:25:58;7.30;;;4.00;;
65658;SDS011;60181;53.258;6.932;2023-12-07T15:30:10;8.90;;;4.20;;
65658;SDS011;60181;53.258;6.932;2023-12-07T15:34:21;8.90;;;4.20;;
65658;SDS011;60181;53.258;6.932;2023-12-07T15:38:33;8.90;;;4.20;;
65658;SDS011;60181;53.258;6.932;2023-12-07T15:42:45;9.60;;;4.50;;
65658;SDS011;60181;53.258;6.932;2023-12-07T15:46:57;9.60;;;4.50;;
65658;SDS011;60181;53.258;6.932;2023-12-07T15:51:09;8.80;;;4.10;;
65658;SDS011;60181;53.258;6.932;2023-12-07T15:55:21;8.80;;;4.10;;
65658;SDS011;60181;53.258;6.932;2023-12-07T15:59:33;10.90;;;4.50;;
65658;SDS011;60181;53.258;6.932;2023-12-07T16:03:45;10.90;;;4.50;;
65658;SDS011;60181;53.258;6.932;2023-12-07T16:07:57;10.90;;;4.50;;
65658;SDS011;60181;53.258;6.932;2023-12-07T16:12:10;10.10;;;4.40;;
65658;SDS011;60181;53.258;6.932;2023-12-07T16:16:21;10.10;;;4.40;;
65658;SDS011;60181;53.258;6.932;2023-12-07T16:20:33;9.30;;;4.70;;
65658;SDS011;60181;53.258;6.932;2023-12-07T16:24:45;9.30;;;4.70;;
65658;SDS011;60181;53.258;6.932;2023-12-07T16:28:57;9.30;;;4.70;;
65658;SDS011;60181;53.258;6.932;2023-12-07T16:33:09;9.30;;;4.60;;
65658;SDS011;60181;53.258;6.932;2023-12-07T16:37:21;9.30;;;4.60;;
65658;SDS011;60181;53.258;6.932;2023-12-07T16:41:33;10.70;;;4.90;;
65658;SDS011;60181;53.258;6.932;2023-12-07T16:45:45;10.70;;;4.90;;
65658;SDS011;60181;53.258;6.932;2023-12-07T16:49:57;11.20;;;5.30;;
65658;SDS011;60181;53.258;6.932;2023-12-07T16:54:09;11.20;;;5.30;;
65658;SDS011;60181;53.258;6.932;2023-12-07T16:58:21;11.20;;;5.30;;
65658;SDS011;60181;53.258;6.932;2023-12-07T17:02:33;10.40;;;5.00;;
65658;SDS011;60181;53.258;6.932;2023-12-07T17:06:45;10.40;;;5.00;;
65658;SDS011;60181;53.258;6.932;2023-12-07T17:10:57;11.50;;;5.30;;
65658;SDS011;60181;53.258;6.932;2023-12-07T17:15:09;11.50;;;5.30;;
65658;SDS011;60181;53.258;6.932;2023-12-07T17:19:21;11.50;;;5.30;;
65658;SDS011;60181;53.258;6.932;2023-12-07T17:23:33;12.00;;;5.70;;
65658;SDS011;60181;53.258;6.932;2023-12-07T17:27:45;12.00;;;5.70;;
65658;SDS011;60181;53.258;6.932;2023-12-07T17:31:57;11.70;;;5.20;;
65658;SDS011;60181;53.258;6.932;2023-12-07T17:36:09;11.70;;;5.20;;
65658;SDS011;60181;53.258;6.932;2023-12-07T17:40:21;15.80;;;5.50;;
65658;SDS011;60181;53.258;6.932;2023-12-07T17:44:33;15.80;;;5.50;;
65658;SDS011;60181;53.258;6.932;2023-12-07T17:48:45;15.80;;;5.50;;
65658;SDS011;60181;53.258;6.932;2023-12-07T17:52:57;12.90;;;5.50;;
65658;SDS011;60181;53.258;6.932;2023-12-07T17:57:09;12.90;;;5.50;;
65658;SDS011;60181;53.258;6.932;2023-12-07T18:01:21;13.20;;;6.00;;
65658;SDS011;60181;53.258;6.932;2023-12-07T18:05:33;13.20;;;6.00;;
65658;SDS011;60181;53.258;6.932;2023-12-07T18:09:45;13.90;;;6.10;;
65658;SDS011;60181;53.258;6.932;2023-12-07T18:13:57;13.90;;;6.10;;
65658;SDS011;60181;53.258;6.932;2023-12-07T18:18:09;13.90;;;6.10;;
65658;SDS011;60181;53.258;6.932;2023-12-07T18:22:21;13.30;;;5.90;;
65658;SDS011;60181;53.258;6.932;2023-12-07T18:26:33;13.30;;;5.90;;
65658;SDS011;60181;53.258;6.932;2023-12-07T18:30:45;13.10;;;5.80;;
65658;SDS011;60181;53.258;6.932;2023-12-07T18:34:57;13.10;;;5.80;;
65658;SDS011;60181;53.258;6.932;2023-12-07T18:39:09;13.10;;;5.80;;
65658;SDS011;60181;53.258;6.932;2023-12-07T18:43:21;14.10;;;6.10;;
65658;SDS011;60181;53.258;6.932;2023-12-07T18:47:33;14.10;;;6.10;;
65658;SDS011;60181;53.258;6.932;2023-12-07T18:51:45;13.80;;;6.60;;
65658;SDS011;60181;53.258;6.932;2023-12-07T18:55:57;13.80;;;6.60;;
65658;SDS011;60181;53.258;6.932;2023-12-07T19:00:11;14.30;;;6.40;;
65658;SDS011;60181;53.258;6.932;2023-12-07T19:04:21;14.30;;;6.40;;
65658;SDS011;60181;53.258;6.932;2023-12-07T19:08:33;14.30;;;6.40;;
65658;SDS011;60181;53.258;6.932;2023-12-07T19:12:45;14.30;;;6.30;;
65658;SDS011;60181;53.258;6.932;2023-12-07T19:16:57;14.30;;;6.30;;
65658;SDS011;60181;53.258;6.932;2023-12-07T19:21:09;15.30;;;6.50;;
65658;SDS011;60181;53.258;6.932;2023-12-07T19:25:21;15.30;;;6.50;;
65658;SDS011;60181;53.258;6.932;2023-12-07T19:29:33;12.80;;;6.70;;
65658;SDS011;60181;53.258;6.932;2023-12-07T19:33:45;12.80;;;6.70;;
65658;SDS011;60181;53.258;6.932;2023-12-07T19:37:57;12.80;;;6.70;;
65658;SDS011;60181;53.258;6.932;2023-12-07T19:42:09;14.50;;;6.30;;
65658;SDS011;60181;53.258;6.932;2023-12-07T19:46:21;14.50;;;6.30;;
65658;SDS011;60181;53.258;6.932;2023-12-07T19:50:33;14.20;;;6.80;;
65658;SDS011;60181;53.258;6.932;2023-12-07T19:54:45;14.20;;;6.80;;
65658;SDS011;60181;53.258;6.932;2023-12-07T19:58:57;14.20;;;6.80;;
65658;SDS011;60181;53.258;6.932;2023-12-07T20:03:09;13.90;;;6.80;;
65658;SDS011;60181;53.258;6.932;2023-12-07T20:07:21;13.90;;;6.80;;
65658;SDS011;60181;53.258;6.932;2023-12-07T20:11:33;13.90;;;6.60;;
65658;SDS011;60181;53.258;6.932;2023-12-07T20:15:45;13.90;;;6.60;;
65658;SDS011;60181;53.258;6.932;2023-12-07T20:19:57;16.00;;;6.80;;
65658;SDS011;60181;53.258;6.932;2023-12-07T20:24:09;16.00;;;6.80;;
65658;SDS011;60181;53.258;6.932;2023-12-07T20:28:21;16.00;;;6.80;;
65658;SDS011;60181;53.258;6.932;2023-12-07T20:32:33;14.10;;;6.30;;
65658;SDS011;60181;53.258;6.932;2023-12-07T20:36:45;14.10;;;6.30;;
65658;SDS011;60181;53.258;6.932;2023-12-07T20:40:57;13.50;;;6.40;;
65658;SDS011;60181;53.258;6.932;2023-12-07T20:45:09;13.50;;;6.40;;
65658;SDS011;60181;53.258;6.932;2023-12-07T20:49:21;13.50;;;6.40;;
65658;SDS011;60181;53.258;6.932;2023-12-07T20:53:33;15.00;;;6.80;;
65658;SDS011;60181;53.258;6.932;2023-12-07T20:57:45;15.00;;;6.80;;
65658;SDS011;60181;53.258;6.932;2023-12-07T21:01:57;17.70;;;6.80;;
65658;SDS011;60181;53.258;6.932;2023-12-07T21:06:09;17.70;;;6.80;;
65658;SDS011;60181;53.258;6.932;2023-12-07T21:10:21;17.30;;;7.40;;
65658;SDS011;60181;53.258;6.932;2023-12-07T21:14:33;17.30;;;7.40;;
65658;SDS011;60181;53.258;6.932;2023-12-07T21:18:45;17.30;;;7.40;;
65658;SDS011;60181;53.258;6.932;2023-12-07T21:22:57;14.70;;;7.00;;
65658;SDS011;60181;53.258;6.932;2023-12-07T21:27:09;14.70;;;7.00;;
65658;SDS011;60181;53.258;6.932;2023-12-07T21:31:21;19.30;;;7.80;;
65658;SDS011;60181;53.258;6.932;2023-12-07T21:35:33;19.30;;;7.80;;
65658;SDS011;60181;53.258;6.932;2023-12-07T21:39:45;16.40;;;7.80;;
65658;SDS011;60181;53.258;6.932;2023-12-07T21:43:57;16.40;;;7.80;;
65658;SDS011;60181;53.258;6.932;2023-12-07T21:48:10;16.40;;;7.80;;
65658;SDS011;60181;53.258;6.932;2023-12-07T21:52:21;17.10;;;7.60;;
65658;SDS011;60181;53.258;6.932;2023-12-07T21:56:33;17.10;;;7.60;;
65658;SDS011;60181;53.258;6.932;2023-12-07T22:00:45;16.70;;;7.70;;
65658;SDS011;60181;53.258;6.932;2023-12-07T22:04:57;16.70;;;7.70;;
65658;SDS011;60181;53.258;6.932;2023-12-07T22:09:09;16.70;;;7.70;;
65658;SDS011;60181;53.258;6.932;2023-12-07T22:13:21;18.30;;;7.80;;
65658;SDS011;60181;53.258;6.932;2023-12-07T22:17:33;18.30;;;7.80;;
65658;SDS011;60181;53.258;6.932;2023-12-07T22:21:45;17.90;;;7.80;;
65658;SDS011;60181;53.258;6.932;2023-12-07T22:25:57;17.90;;;7.80;;
65658;SDS011;60181;53.258;6.932;2023-12-07T22:30:09;18.60;;;8.10;;
65658;SDS011;60181;53.258;6.932;2023-12-07T22:34:21;18.60;;;8.10;;
65658;SDS011;60181;53.258;6.932;2023-12-07T22:38:33;18.60;;;8.10;;
65658;SDS011;60181;53.258;6.932;2023-12-07T22:42:45;18.40;;;8.30;;
65658;SDS011;60181;53.258;6.932;2023-12-07T22:46:57;18.40;;;8.30;;
65658;SDS011;60181;53.258;6.932;2023-12-07T22:51:09;17.30;;;8.00;;
65658;SDS011;60181;53.258;6.932;2023-12-07T22:55:21;17.30;;;8.00;;
65658;SDS011;60181;53.258;6.932;2023-12-07T22:59:33;17.00;;;8.20;;
65658;SDS011;60181;53.258;6.932;2023-12-07T23:03:45;17.00;;;8.20;;
65658;SDS011;60181;53.258;6.932;2023-12-07T23:07:57;17.00;;;8.20;;
65658;SDS011;60181;53.258;6.932;2023-12-07T23:12:09;17.00;;;8.20;;
65658;SDS011;60181;53.258;6.932;2023-12-07T23:16:21;17.00;;;8.20;;
65658;SDS011;60181;53.258;6.932;2023-12-07T23:20:33;17.10;;;7.80;;
65658;SDS011;60181;53.258;6.932;2023-12-07T23:24:45;17.10;;;7.80;;
65658;SDS011;60181;53.258;6.932;2023-12-07T23:28:57;17.10;;;7.80;;
65658;SDS011;60181;53.258;6.932;2023-12-07T23:33:09;15.30;;;7.70;;
65658;SDS011;60181;53.258;6.932;2023-12-07T23:37:21;15.30;;;7.70;;
65658;SDS011;60181;53.258;6.932;2023-12-07T23:41:32;16.40;;;8.00;;
65658;SDS011;60181;53.258;6.932;2023-12-07T23:45:45;16.40;;;8.00;;
65658;SDS011;60181;53.258;6.932;2023-12-07T23:49:56;16.10;;;8.00;;
65658;SDS011;60181;53.258;6.932;2023-12-07T23:54:08;16.10;;;8.00;;
65658;SDS011;60181;53.258;6.932;2023-12-07T23:58:20;16.10;;;8.00;;
